Time;durP1;ratioP1;P1;durP2;ratioP2;P2;SDS_P1;SDS_P2;PMS_P1;PMS_P2;Temp;Humidity;BMP_temperature;BMP_pressure;BME280_temperature;BME280_humidity;BME280_pressure;Samples;Min_cycle;Max_cycle;Signal;HPM_P1;HPM_P2
2022/08/14 00:00:12;;;;;;;6.63;5.88;;;;;;;28.67;37.19;101332.44;5033982;28;20040;-75
2022/08/14 00:02:38;;;;;;;9.05;6.13;;;;;;;28.51;37.15;101321.94;5034008;28;20021;-72
2022/08/14 00:05:06;;;;;;;11.57;6.57;;;;;;;28.62;36.98;101319.63;5033750;28;20033;-74
2022/08/14 00:07:34;;;;;;;9.18;6.20;;;;;;;28.73;36.87;101320.88;5033886;28;20029;-73
2022/08/14 00:10:01;;;;;;;9.10;5.78;;;;;;;28.67;36.97;101316.66;5031296;28;20056;-74
2022/08/14 00:12:27;;;;;;;9.70;6.90;;;;;;;28.74;37.27;101321.69;5019160;28;20035;-74
2022/08/14 00:14:53;;;;;;;11.00;6.18;;;;;;;28.65;37.55;101316.19;4994863;28;20391;-74
2022/08/14 00:17:18;;;;;;;9.15;6.68;;;;;;;28.67;37.51;101310.31;5010932;28;20038;-74
2022/08/14 00:19:44;;;;;;;9.13;6.43;;;;;;;28.56;37.09;101310.69;5014190;28;20033;-74
2022/08/14 00:22:11;;;;;;;8.38;6.28;;;;;;;28.59;37.04;101312.81;5013937;28;20038;-73
2022/08/14 00:24:36;;;;;;;11.45;6.82;;;;;;;28.56;37.57;101307.13;5014764;28;20018;-73
2022/08/14 00:27:02;;;;;;;11.82;7.40;;;;;;;28.48;37.99;101305.22;5014005;28;20420;-74
2022/08/14 00:29:31;;;;;;;11.25;6.13;;;;;;;28.48;37.42;101299.69;5014130;28;20038;-74
2022/08/14 00:31:56;;;;;;;9.52;6.38;;;;;;;28.39;37.77;101301.66;5014740;28;20686;-74
2022/08/14 00:34:22;;;;;;;8.02;6.45;;;;;;;28.35;38.34;101295.19;5014330;28;20041;-75
2022/08/14 00:36:48;;;;;;;8.68;6.95;;;;;;;28.30;38.18;101301.72;5014502;28;20079;-73
2022/08/14 00:39:14;;;;;;;8.68;6.13;;;;;;;28.30;38.69;101298.13;5014002;28;20037;-75
2022/08/14 00:41:41;;;;;;;8.30;6.97;;;;;;;28.22;38.79;101294.28;5013864;28;20388;-74
2022/08/14 00:44:06;;;;;;;7.82;6.45;;;;;;;28.31;38.39;101289.50;5013972;28;20037;-74
2022/08/14 00:46:32;;;;;;;8.40;6.40;;;;;;;28.26;38.30;101288.88;5013617;28;20030;-75
2022/08/14 00:48:57;;;;;;;9.48;6.30;;;;;;;28.24;38.40;101282.88;5014071;28;20050;-74
2022/08/14 00:51:23;;;;;;;12.23;6.38;;;;;;;28.28;38.67;101281.91;4995799;28;20034;-75
2022/08/14 00:53:49;;;;;;;9.40;6.32;;;;;;;28.26;38.64;101280.59;5013574;28;20552;-75
2022/08/14 00:56:15;;;;;;;9.73;6.25;;;;;;;28.20;38.81;101273.63;5013919;28;20042;-74
2022/08/14 00:58:40;;;;;;;11.05;6.43;;;;;;;28.18;38.43;101275.91;5013677;28;20529;-75
2022/08/14 01:01:10;;;;;;;9.20;6.18;;;;;;;28.17;38.91;101271.50;5013864;28;20034;-75
2022/08/14 01:03:38;;;;;;;11.10;7.00;;;;;;;28.16;38.79;101272.66;5013632;28;20065;-73
2022/08/14 01:06:07;;;;;;;8.55;6.57;;;;;;;28.08;39.05;101268.00;5013394;28;20512;-75
2022/08/14 01:08:33;;;;;;;7.97;6.68;;;;;;;28.15;38.71;101258.03;5013431;28;20492;-74
2022/08/14 01:10:59;;;;;;;14.13;6.60;;;;;;;28.20;39.18;101262.56;5013511;28;20084;-74
2022/08/14 01:13:26;;;;;;;7.78;6.97;;;;;;;28.09;39.37;101253.03;5012734;28;20042;-74
2022/08/14 01:15:56;;;;;;;7.50;6.53;;;;;;;28.09;39.09;101255.81;5013805;28;20029;-73
2022/08/14 01:21:10;;;;;;;9.98;6.25;;;;;;;27.97;39.84;101244.66;5012909;28;20645;-75
2022/08/14 01:23:42;;;;;;;9.32;7.00;;;;;;;28.04;39.25;101242.97;5012836;28;20066;-76
2022/08/14 01:26:09;;;;;;;12.23;6.57;;;;;;;27.97;39.28;101244.66;5012995;28;20037;-74
2022/08/14 01:28:36;;;;;;;9.10;6.93;;;;;;;27.87;40.01;101244.97;5012949;28;20038;-74
2022/08/14 01:31:07;;;;;;;8.38;6.07;;;;;;;27.85;39.34;101239.78;5013740;28;20021;-74
2022/08/14 01:33:34;;;;;;;9.70;6.85;;;;;;;27.92;39.39;101233.72;5013220;28;20207;-75
2022/08/14 01:35:59;;;;;;;14.35;6.93;;;;;;;27.85;39.85;101233.44;5012643;28;20418;-73
2022/08/14 01:38:33;;;;;;;8.13;6.68;;;;;;;27.89;39.20;101231.66;5012676;28;20174;-75
2022/08/14 01:41:05;;;;;;;11.43;6.80;;;;;;;27.79;40.38;101232.81;5012763;28;20037;-73
2022/08/14 01:43:33;;;;;;;8.57;6.07;;;;;;;27.73;39.37;101226.66;5012920;28;20041;-73
2022/08/14 01:45:59;;;;;;;8.35;6.13;;;;;;;27.72;40.68;101221.47;4995348;28;20037;-73
2022/08/14 01:48:31;;;;;;;8.75;6.63;;;;;;;27.85;40.13;101228.75;5012512;28;20042;-74
2022/08/14 01:51:00;;;;;;;9.65;6.68;;;;;;;27.73;39.98;101229.41;5012630;28;20465;-75
2022/08/14 01:53:25;;;;;;;9.23;6.40;;;;;;;27.78;40.18;101215.44;5012429;28;20038;-74
2022/08/14 01:55:56;;;;;;;12.77;7.55;;;;;;;27.67;40.48;101216.13;5012103;28;20030;-71
2022/08/14 01:58:24;;;;;;;8.18;7.03;;;;;;;27.58;40.82;101204.28;5011407;28;20116;-70
2022/08/14 02:00:53;;;;;;;8.07;6.75;;;;;;;27.71;40.76;101206.84;5012313;28;20053;-72
2022/08/14 02:03:19;;;;;;;7.28;6.57;;;;;;;27.62;40.94;101203.31;5011397;28;20034;-71
2022/08/14 02:05:44;;;;;;;12.70;7.45;;;;;;;27.62;40.92;101205.25;4998103;28;20499;-69
2022/08/14 02:08:10;;;;;;;12.60;6.97;;;;;;;27.63;40.92;101195.84;4994394;28;20076;-70
2022/08/14 02:10:38;;;;;;;9.57;6.70;;;;;;;27.58;41.09;101198.75;5011523;28;20038;-71
2022/08/14 02:13:07;;;;;;;7.85;6.97;;;;;;;27.62;41.01;101200.53;5011508;28;20034;-70
2022/08/14 02:15:33;;;;;;;7.75;6.60;;;;;;;27.60;40.95;101194.53;5011339;28;20034;-70
2022/08/14 02:18:03;;;;;;;8.65;6.50;;;;;;;27.61;40.85;101190.66;5011761;28;20034;-72
2022/08/14 02:20:32;;;;;;;7.57;6.87;;;;;;;27.59;40.88;101192.94;5012135;28;20070;-73
2022/08/14 02:22:58;;;;;;;8.13;7.32;;;;;;;27.59;41.20;101186.59;5012594;28;20440;-74
2022/08/14 02:25:24;;;;;;;9.60;7.18;;;;;;;27.46;41.44;101180.13;5012684;28;20073;-73
2022/08/14 02:27:49;;;;;;;7.50;6.10;;;;;;;27.50;40.76;101183.84;5013141;28;20092;-74
2022/08/14 02:30:14;;;;;;;9.45;7.55;;;;;;;27.51;41.24;101184.66;5012301;28;20050;-74
2022/08/14 02:32:40;;;;;;;9.68;6.55;;;;;;;27.44;41.58;101181.63;5012019;28;20034;-73
2022/08/14 02:35:16;;;;;;;10.98;7.05;;;;;;;27.43;41.00;101180.78;5013808;28;20391;-74
2022/08/14 02:37:41;;;;;;;8.00;7.20;;;;;;;27.38;41.82;101175.44;5000815;28;20026;-73
2022/08/14 02:40:08;;;;;;;8.70;6.50;;;;;;;27.38;41.32;101174.66;5019489;28;20355;-74
2022/08/14 02:42:33;;;;;;;7.63;6.82;;;;;;;27.34;41.67;101174.47;5018817;28;20038;-75
2022/08/14 02:44:58;;;;;;;7.70;6.78;;;;;;;27.34;41.43;101174.47;5018624;28;20037;-74
2022/08/14 02:47:25;;;;;;;7.65;6.53;;;;;;;27.33;41.40;101175.63;5018615;28;20041;-74
2022/08/14 02:49:50;;;;;;;8.00;6.05;;;;;;;27.24;42.19;101174.00;5018469;28;20594;-73
2022/08/14 02:52:16;;;;;;;8.98;6.85;;;;;;;27.26;41.96;101186.31;5018580;28;20113;-75
2022/08/14 02:54:41;;;;;;;9.30;7.05;;;;;;;27.23;41.84;101175.13;5019038;28;20037;-74
2022/08/14 02:57:07;;;;;;;8.02;6.75;;;;;;;27.18;42.16;101178.06;5018200;28;20065;-74
2022/08/14 02:59:35;;;;;;;11.73;7.40;;;;;;;27.11;42.31;101170.28;5018440;28;20155;-73
2022/08/14 03:02:02;;;;;;;8.85;7.28;;;;;;;27.09;42.25;101171.75;5004825;28;20030;-74
2022/08/14 03:04:28;;;;;;;8.40;7.38;;;;;;;27.08;42.57;101170.13;5001863;28;20080;-76
2022/08/14 03:06:53;;;;;;;10.32;6.82;;;;;;;27.02;42.87;101168.69;5018945;28;20121;-74
2022/08/14 03:09:19;;;;;;;7.15;6.40;;;;;;;27.06;42.21;101170.47;5018115;28;20531;-73
2022/08/14 03:11:45;;;;;;;8.77;7.07;;;;;;;27.04;42.37;101171.91;5017970;28;20050;-73
2022/08/14 03:14:11;;;;;;;7.47;6.70;;;;;;;27.02;42.33;101169.50;5018312;28;20683;-74
2022/08/14 03:16:38;;;;;;;8.73;7.00;;;;;;;27.00;42.40;101162.69;5018028;28;20037;-72
2022/08/14 03:19:06;;;;;;;8.23;7.10;;;;;;;26.96;42.44;101162.53;5018594;28;20038;-73
2022/08/14 03:21:32;;;;;;;9.65;8.23;;;;;;;26.93;43.08;101168.69;5017959;28;20054;-73
2022/08/14 03:24:10;;;;;;;8.90;6.72;;;;;;;26.88;42.68;101166.91;5018050;28;20045;-75
2022/08/14 03:26:40;;;;;;;7.93;6.97;;;;;;;26.84;43.27;101167.88;5018152;28;20140;-73
2022/08/14 03:29:09;;;;;;;10.98;7.32;;;;;;;26.93;42.71;101172.25;5017988;28;20069;-74
2022/08/14 03:31:39;;;;;;;8.45;7.47;;;;;;;26.92;42.93;101169.84;5018087;28;20037;-73
2022/08/14 03:34:07;;;;;;;13.10;7.85;;;;;;;26.87;42.97;101164.47;5018874;28;20034;-73
2022/08/14 03:36:32;;;;;;;8.23;7.30;;;;;;;26.81;43.22;101163.03;5018105;28;20655;-73
2022/08/14 03:38:59;;;;;;;9.93;7.95;;;;;;;26.71;43.47;101158.63;5017714;28;20042;-74
2022/08/14 03:41:27;;;;;;;13.20;8.23;;;;;;;26.62;43.82;101162.50;4999698;28;20058;-74
2022/08/14 03:43:57;;;;;;;8.80;7.43;;;;;;;26.68;43.48;101158.44;5018001;28;20052;-75
2022/08/14 03:46:26;;;;;;;9.25;7.82;;;;;;;26.58;43.79;101156.03;5016480;28;20050;-73
2022/08/14 03:48:53;;;;;;;14.23;7.40;;;;;;;26.52;43.84;101151.78;5014914;28;20474;-74
2022/08/14 03:51:20;;;;;;;10.07;8.18;;;;;;;26.55;43.90;101151.97;5014726;28;20057;-73
2022/08/14 03:53:46;;;;;;;9.13;7.80;;;;;;;26.58;43.64;101148.56;5014617;28;20498;-73
2022/08/14 03:56:13;;;;;;;9.15;8.15;;;;;;;26.56;43.74;101153.59;5014702;28;20088;-73
2022/08/14 03:58:44;;;;;;;11.45;7.50;;;;;;;26.50;44.16;101143.84;4996673;28;20394;-74
2022/08/14 04:01:13;;;;;;;10.52;7.65;;;;;;;26.59;44.20;101150.19;5012928;28;20045;-75
2022/08/14 04:03:39;;;;;;;9.48;8.18;;;;;;;26.53;43.76;101150.69;5014537;28;20022;-74
2022/08/14 04:06:07;;;;;;;8.55;7.68;;;;;;;26.53;44.28;101145.16;5014154;28;20105;-73
2022/08/14 04:08:39;;;;;;;9.90;8.25;;;;;;;26.62;43.79;101143.22;5013748;28;20046;-74
2022/08/14 04:11:05;;;;;;;8.95;8.00;;;;;;;26.45;44.70;101140.47;5013985;28;20120;-73
2022/08/14 04:13:34;;;;;;;10.77;7.82;;;;;;;26.59;44.04;101141.94;5014082;28;20138;-73
2022/08/14 04:16:00;;;;;;;11.30;8.18;;;;;;;26.56;44.35;101144.50;5016839;28;20029;-73
2022/08/14 04:18:25;;;;;;;11.80;7.45;;;;;;;26.48;44.80;101142.56;5014374;28;20037;-74
2022/08/14 04:20:51;;;;;;;8.75;7.85;;;;;;;26.60;43.91;101139.97;5014190;28;20406;-74
2022/08/14 04:23:16;;;;;;;9.80;8.40;;;;;;;26.40;44.58;101138.66;5013803;28;20041;-72
2022/08/14 04:25:42;;;;;;;9.52;8.43;;;;;;;26.41;44.72;101140.31;5014250;28;20056;-74
2022/08/14 04:28:10;;;;;;;10.15;8.23;;;;;;;26.44;44.70;101134.13;5014355;28;20029;-73
2022/08/14 04:30:38;;;;;;;10.23;7.70;;;;;;;26.48;44.41;101137.03;5014283;28;20053;-73
2022/08/14 04:33:07;;;;;;;10.70;8.10;;;;;;;26.56;44.11;101137.06;5014615;28;20048;-72
2022/08/14 04:35:34;;;;;;;16.00;8.18;;;;;;;26.67;44.18;101145.81;5014194;28;20038;-71
2022/08/14 04:43:38;;;;;;;10.50;8.02;;;;;;;26.54;44.70;101136.56;5014067;28;20052;-73
2022/08/14 04:46:09;;;;;;;10.82;7.75;;;;;;;26.42;44.85;101130.06;5014367;28;20089;-73
2022/08/14 04:48:35;;;;;;;12.13;8.80;;;;;;;26.38;44.70;101132.66;5013919;28;20741;-73
2022/08/14 04:51:02;;;;;;;11.50;8.65;;;;;;;26.67;44.37;101132.03;5013837;28;20038;-73
2022/08/14 04:53:29;;;;;;;12.50;7.95;;;;;;;26.72;44.23;101129.13;5008745;28;20042;-73
2022/08/14 04:55:55;;;;;;;13.98;8.43;;;;;;;26.60;44.46;101135.28;4994023;28;20023;-74
2022/08/14 04:58:25;;;;;;;16.90;8.60;;;;;;;26.65;44.10;101137.06;5008047;28;20041;-75
2022/08/14 05:00:51;;;;;;;11.40;7.43;;;;;;;26.59;44.53;101133.66;5013943;28;20029;-72
2022/08/14 05:03:21;;;;;;;9.98;8.15;;;;;;;26.76;44.36;101130.91;5013440;28;20471;-73
2022/08/14 05:05:51;;;;;;;8.27;7.13;;;;;;;26.69;44.34;101127.00;4995757;28;20128;-73
2022/08/14 05:08:17;;;;;;;8.73;7.82;;;;;;;26.64;44.58;101122.44;5013099;28;20092;-73
2022/08/14 05:10:45;;;;;;;11.68;8.13;;;;;;;26.69;44.09;101119.50;4995775;28;20066;-72
2022/08/14 05:13:12;;;;;;;14.25;9.05;;;;;;;26.71;44.70;101131.06;5013115;28;20050;-73
2022/08/14 05:15:39;;;;;;;10.38;8.05;;;;;;;26.82;43.83;101135.13;5013327;28;20021;-73
2022/08/14 05:18:11;;;;;;;12.20;8.15;;;;;;;26.74;44.44;101132.38;5013479;28;20121;-73
2022/08/14 05:20:44;;;;;;;11.88;7.07;;;;;;;26.93;43.97;101132.81;4995720;28;20053;-73
2022/08/14 05:23:13;;;;;;;9.00;8.05;;;;;;;26.92;44.25;101120.19;5012951;28;20034;-73
2022/08/14 05:25:39;;;;;;;9.18;8.27;;;;;;;27.02;43.75;101119.84;4994031;28;20026;-75
2022/08/14 05:28:09;;;;;;;9.20;7.90;;;;;;;27.17;43.68;101116.53;5012881;28;20375;-73
2022/08/14 05:30:35;;;;;;;12.93;8.13;;;;;;;27.17;43.96;101105.50;5012566;28;20104;-73
2022/08/14 05:33:01;;;;;;;8.95;7.53;;;;;;;27.32;43.52;101104.16;5012261;28;20128;-74
2022/08/14 05:35:26;;;;;;;8.65;7.07;;;;;;;27.25;43.85;101104.66;5012732;28;20037;-74
2022/08/14 05:37:52;;;;;;;9.75;7.68;;;;;;;27.34;43.57;101101.91;4995105;28;20152;-73
2022/08/14 05:40:18;;;;;;;9.57;7.93;;;;;;;27.28;43.45;101115.03;5012356;28;20060;-75
2022/08/14 05:42:43;;;;;;;10.75;8.38;;;;;;;27.32;43.72;101118.75;5012662;28;20046;-73
2022/08/14 05:45:09;;;;;;;11.32;7.97;;;;;;;27.48;43.40;101110.75;5013064;28;20040;-72
2022/08/14 05:47:38;;;;;;;11.40;7.78;;;;;;;27.38;43.37;101102.88;5013306;28;20037;-69
2022/08/14 05:50:06;;;;;;;9.50;8.15;;;;;;;27.48;43.04;101091.44;5005299;28;20081;-70
2022/08/14 05:52:31;;;;;;;10.75;8.23;;;;;;;27.55;43.43;101100.84;4992277;28;20118;-69
2022/08/14 05:54:57;;;;;;;10.13;7.72;;;;;;;27.46;43.86;101102.03;5013328;28;20034;-69
2022/08/14 05:57:22;;;;;;;11.60;7.40;;;;;;;27.22;44.31;101099.00;5030779;28;20493;-70
2022/08/14 05:59:48;;;;;;;12.02;8.57;;;;;;;27.08;44.79;101092.88;5014321;28;20087;-69
2022/08/14 06:02:13;;;;;;;9.93;7.53;;;;;;;27.54;43.18;101093.69;5032581;28;20358;-69
2022/08/14 06:04:39;;;;;;;9.07;7.95;;;;;;;27.66;42.92;101091.03;5032329;28;20396;-70
2022/08/14 06:07:05;;;;;;;16.13;8.48;;;;;;;27.28;44.27;101094.94;5032894;28;20040;-69
2022/08/14 06:09:30;;;;;;;9.60;8.60;;;;;;;27.75;42.97;101094.53;5029536;28;20037;-72
2022/08/14 06:11:55;;;;;;;12.05;8.23;;;;;;;27.81;42.47;101097.94;5029627;28;20061;-69
2022/08/14 06:14:22;;;;;;;8.75;7.70;;;;;;;27.70;43.60;101091.16;5031803;28;20037;-70
2022/08/14 06:16:47;;;;;;;13.63;7.90;;;;;;;27.87;43.03;101095.78;5017011;28;20026;-70
2022/08/14 06:19:13;;;;;;;10.68;8.88;;;;;;;27.40;43.99;101097.84;5012673;28;20037;-69
2022/08/14 06:21:38;;;;;;;10.57;8.02;;;;;;;27.95;42.84;101089.44;5015274;28;20045;-72
2022/08/14 06:24:04;;;;;;;9.40;7.28;;;;;;;28.14;42.16;101090.59;5012728;28;20066;-76
2022/08/14 06:26:29;;;;;;;11.00;8.88;;;;;;;27.79;43.02;101089.97;4992831;28;20037;-73
2022/08/14 06:28:55;;;;;;;9.98;8.93;;;;;;;28.06;42.62;101090.66;5019360;28;20029;-74
2022/08/14 06:31:21;;;;;;;14.40;7.95;;;;;;;28.12;42.26;101092.88;5019759;28;20112;-73
2022/08/14 06:33:47;;;;;;;10.00;8.18;;;;;;;28.01;43.07;101094.41;5031398;28;20107;-74
2022/08/14 06:36:17;;;;;;;11.10;8.40;;;;;;;27.62;43.82;101092.84;5014141;28;20037;-74
2022/08/14 06:38:42;;;;;;;10.33;8.37;;;;;;;27.81;43.62;101101.50;5031683;28;20094;-73
2022/08/14 06:41:07;;;;;;;10.43;7.60;;;;;;;28.10;42.67;101097.94;5031474;28;20546;-73
2022/08/14 06:43:33;;;;;;;11.40;9.18;;;;;;;28.35;42.17;101096.94;5031383;28;20038;-75
2022/08/14 06:45:59;;;;;;;10.60;8.68;;;;;;;28.63;41.52;101094.44;5023797;28;20526;-72
2022/08/14 06:48:25;;;;;;;10.98;8.80;;;;;;;28.50;41.80;101099.06;5031624;28;20409;-72
2022/08/14 06:50:54;;;;;;;12.70;8.73;;;;;;;28.41;41.81;101100.28;5027189;28;20045;-73
2022/08/14 06:53:21;;;;;;;9.85;8.43;;;;;;;28.72;41.75;101086.84;5027031;28;20069;-71
2022/08/14 06:55:47;;;;;;;9.15;8.20;;;;;;;28.93;40.60;101093.16;5031115;28;20058;-73
2022/08/14 06:58:14;;;;;;;15.25;9.05;;;;;;;28.86;40.72;101101.19;5031464;28;20036;-72
2022/08/14 07:05:44;;;;;;;14.85;9.55;;;;;;;28.70;41.71;101102.97;5012938;28;20048;-71
2022/08/14 07:06:11;;;;;;;10.00;9.00;;;;;;;28.90;41.25;101099.38;5030928;28;20040;-69
2022/08/14 07:08:37;;;;;;;13.00;9.13;;;;;;;28.90;41.51;101096.59;5026058;28;20099;-70
2022/08/14 07:11:03;;;;;;;9.05;8.15;;;;;;;29.16;40.31;101093.56;5030606;28;20038;-72
2022/08/14 07:13:28;;;;;;;9.65;8.30;;;;;;;29.15;40.78;101092.75;5031238;28;20053;-72
2022/08/14 07:15:56;;;;;;;17.25;8.30;;;;;;;29.55;40.44;101092.09;5026426;28;20021;-71
2022/08/14 07:18:29;;;;;;;11.13;8.35;;;;;;;29.69;40.00;101092.56;5030350;28;20044;-72
2022/08/14 07:20:56;;;;;;;17.42;8.75;;;;;;;29.72;39.96;101092.72;5029866;28;20050;-70
2022/08/14 07:23:25;;;;;;;9.93;8.32;;;;;;;29.44;40.67;101098.09;5034117;28;20033;-71
2022/08/14 07:25:55;;;;;;;9.88;7.90;;;;;;;29.83;39.83;101099.41;5033999;28;20030;-74
2022/08/14 07:28:22;;;;;;;;;;;;;;;29.58;40.15;101097.78;5031224;28;20788;-70
2022/08/14 07:30:49;;;;;;;15.95;8.27;;;;;;;29.60;40.64;101094.66;5034521;28;19912;-69
2022/08/14 07:33:15;;;;;;;9.52;8.13;;;;;;;29.91;39.79;101092.94;5034632;28;20041;-73
2022/08/14 07:35:41;;;;;;;10.25;8.20;;;;;;;30.21;39.10;101087.91;5016872;28;20041;-73
2022/08/14 07:38:07;;;;;;;9.85;7.43;;;;;;;30.04;39.44;101080.66;5034651;28;20041;-73
2022/08/14 07:40:33;;;;;;;11.35;8.38;;;;;;;30.18;39.27;101080.28;5034724;28;20478;-73
2022/08/14 07:42:59;;;;;;;11.60;8.73;;;;;;;30.28;38.89;101077.03;5012661;28;20046;-73
2022/08/14 07:45:25;;;;;;;13.13;8.93;;;;;;;30.35;38.59;101088.34;4996117;28;20034;-72
2022/08/14 07:47:51;;;;;;;10.88;7.63;;;;;;;30.25;38.98;101094.38;5014616;28;20161;-73
2022/08/14 07:50:18;;;;;;;10.02;7.82;;;;;;;30.67;37.70;101092.03;5014644;28;20068;-72
2022/08/14 07:52:45;;;;;;;9.88;7.78;;;;;;;30.73;37.83;101085.88;4996955;28;20436;-72
2022/08/14 07:55:13;;;;;;;8.35;7.55;;;;;;;30.68;37.86;101083.38;5014487;28;20052;-71
2022/08/14 07:57:39;;;;;;;11.20;7.72;;;;;;;30.83;37.55;101087.31;5015281;28;20082;-71
2022/08/14 08:00:11;;;;;;;10.25;7.50;;;;;;;30.97;37.51;101079.41;5014859;28;20390;-71
2022/08/14 08:02:43;;;;;;;14.07;7.70;;;;;;;31.21;37.39;101076.50;5033998;28;20026;-72
2022/08/14 08:05:10;;;;;;;12.68;7.72;;;;;;;30.90;37.80;101074.47;5028739;28;20041;-71
2022/08/14 08:07:37;;;;;;;9.90;6.97;;;;;;;31.17;37.19;101064.47;5033697;28;20039;-73
2022/08/14 08:10:29;;;;;;;8.80;6.75;;;;;;;31.16;37.41;101071.19;5034201;28;20065;-70
2022/08/14 08:12:53;;;;;;;8.95;7.40;;;;;;;31.47;37.17;101071.19;5028893;28;20046;-71
2022/08/14 08:15:19;;;;;;;8.90;6.72;;;;;;;31.54;36.96;101065.84;5027498;28;20038;-72
2022/08/14 08:17:44;;;;;;;8.18;6.85;;;;;;;31.95;35.61;101067.19;5027277;28;20355;-70
2022/08/14 08:20:18;;;;;;;7.75;6.68;;;;;;;31.76;36.25;101056.81;5033970;28;20025;-74
2022/08/14 08:22:44;;;;;;;7.32;6.63;;;;;;;31.53;36.53;101053.09;5022723;28;20155;-65
2022/08/14 08:25:11;;;;;;;9.30;6.60;;;;;;;32.01;35.64;101060.19;5027765;28;20033;-71
2022/08/14 08:27:36;;;;;;;7.20;6.50;;;;;;;32.11;35.33;101056.84;5009691;28;20093;-70
2022/08/14 08:30:08;;;;;;;7.25;6.43;;;;;;;32.34;34.77;101046.59;5003980;28;20042;-73
2022/08/14 08:32:41;;;;;;;11.18;7.00;;;;;;;31.94;35.36;101049.69;5001508;28;20035;-75
2022/08/14 08:35:16;;;;;;;7.57;6.22;;;;;;;32.05;35.00;101038.00;5002177;28;20118;-73
2022/08/14 08:37:42;;;;;;;9.05;5.50;;;;;;;32.46;34.86;101035.34;5002497;28;20431;-74
2022/08/14 08:40:07;;;;;;;11.75;6.60;;;;;;;32.19;34.75;101035.53;5011634;28;20036;-74
2022/08/14 08:42:33;;;;;;;9.48;5.53;;;;;;;32.69;34.04;101022.25;5017141;28;20084;-74
2022/08/14 08:44:58;;;;;;;7.82;6.30;;;;;;;32.43;33.99;101027.69;5011312;28;20552;-72
2022/08/14 08:47:23;;;;;;;6.68;5.88;;;;;;;32.54;34.08;101022.34;5018173;28;20041;-74
2022/08/14 08:49:51;;;;;;;8.95;6.28;;;;;;;32.66;33.70;101024.97;5019074;28;20540;-71
2022/08/14 08:52:16;;;;;;;10.80;5.20;;;;;;;33.00;33.54;101026.03;5016626;28;20111;-72
2022/08/14 08:54:52;;;;;;;7.68;5.95;;;;;;;32.64;33.65;101024.53;5019653;28;20646;-72
2022/08/14 08:57:17;;;;;;;6.30;5.57;;;;;;;32.81;33.23;101024.06;5019628;28;20054;-75
2022/08/14 08:59:43;;;;;;;6.57;5.70;;;;;;;33.08;33.09;101016.63;5019238;28;20507;-74
2022/08/14 09:02:09;;;;;;;12.10;5.82;;;;;;;33.05;33.11;101014.56;5032597;28;20513;-75
2022/08/14 09:04:43;;;;;;;6.78;5.10;;;;;;;33.07;32.24;101004.66;5020032;28;20382;-76
2022/08/14 09:07:10;;;;;;;7.75;6.10;;;;;;;33.41;31.44;101000.03;5007842;28;20034;-72
2022/08/14 09:09:50;;;;;;;7.57;5.30;;;;;;;32.97;32.87;100999.72;5013810;28;20026;-77
2022/08/14 09:12:16;;;;;;;7.70;5.82;;;;;;;33.61;31.11;100998.78;4993476;28;20038;-74
2022/08/14 09:14:42;;;;;;;6.07;5.32;;;;;;;33.77;31.40;100999.38;4993804;28;20085;-77
2022/08/14 09:17:07;;;;;;;6.07;4.72;;;;;;;34.12;30.60;101010.22;5011350;28;20037;-77
2022/08/14 09:19:35;;;;;;;6.25;5.00;;;;;;;33.86;30.46;101013.03;5013617;28;20390;-77
2022/08/14 09:22:02;;;;;;;6.00;5.18;;;;;;;33.87;30.65;101009.09;4996004;28;20398;-76
2022/08/14 09:24:28;;;;;;;6.53;5.00;;;;;;;34.23;30.32;101011.16;5013222;28;20441;-77
2022/08/14 09:26:54;;;;;;;6.93;4.78;;;;;;;34.49;29.63;101011.91;5013127;28;20073;-74
2022/08/14 09:29:19;;;;;;;5.63;4.75;;;;;;;34.63;29.66;101004.84;5013065;28;20037;-74
2022/08/14 09:31:49;;;;;;;5.07;4.57;;;;;;;34.61;29.75;101008.03;4995277;28;20512;-74
2022/08/14 09:34:39;;;;;;;6.05;4.60;;;;;;;34.14;30.12;101008.66;5011876;28;20041;-75
2022/08/14 09:37:13;;;;;;;;;;;;;;;34.57;29.37;101009.97;4994591;28;20038;-76
2022/08/14 09:39:49;;;;;;;7.25;4.68;;;;;;;34.39;29.11;101004.19;5008152;28;19913;-73
2022/08/14 09:42:22;;;;;;;6.25;5.10;;;;;;;34.22;29.21;101001.19;5012401;28;20551;-72
2022/08/14 09:45:06;;;;;;;5.47;4.97;;;;;;;34.77;28.85;101000.19;4994155;28;20042;-75
2022/08/14 09:47:46;;;;;;;5.05;3.85;;;;;;;34.92;28.48;100992.75;4992525;28;20042;-74
2022/08/14 09:50:15;;;;;;;6.35;4.82;;;;;;;34.43;27.82;100996.66;4992391;28;20093;-74
2022/08/14 09:52:50;;;;;;;6.25;4.40;;;;;;;34.95;27.83;100989.22;4992179;28;20065;-70
2022/08/14 09:55:20;;;;;;;4.82;4.00;;;;;;;34.74;26.77;100972.25;4991853;28;20031;-70
2022/08/14 09:57:45;;;;;;;4.95;4.05;;;;;;;34.72;28.06;100977.41;4992520;28;20042;-69
2022/08/14 10:00:18;;;;;;;5.97;4.60;;;;;;;35.20;27.49;100974.25;4991851;28;20046;-69
2022/08/14 10:02:56;;;;;;;6.97;3.92;;;;;;;35.26;27.58;100955.91;4991860;28;20038;-68
2022/08/14 10:05:33;;;;;;;5.35;4.05;;;;;;;35.21;27.72;100961.06;4991961;28;20038;-73
2022/08/14 10:08:02;;;;;;;6.10;3.95;;;;;;;35.06;28.19;100960.19;4991995;28;20093;-69
2022/08/14 10:10:39;;;;;;;6.97;4.03;;;;;;;35.42;27.93;100952.03;4991570;28;20705;-70
2022/08/14 10:13:21;;;;;;;6.60;3.95;;;;;;;35.48;26.84;100948.50;4991778;28;20081;-69
2022/08/14 10:15:48;;;;;;;4.80;3.85;;;;;;;35.84;26.21;100950.28;4998721;28;20089;-69
2022/08/14 10:18:16;;;;;;;4.05;3.75;;;;;;;35.89;26.50;100943.53;5011062;28;20046;-69
2022/08/14 10:20:54;;;;;;;4.43;3.88;;;;;;;35.87;25.90;100941.09;5011020;28;20065;-69
2022/08/14 10:23:22;;;;;;;8.50;4.50;;;;;;;35.86;26.00;100933.91;5011260;28;20038;-70
2022/08/14 10:25:51;;;;;;;5.95;4.60;;;;;;;36.04;26.29;100929.22;5011130;28;20053;-70
2022/08/14 10:28:19;;;;;;;6.67;4.10;;;;;;;36.22;26.09;100928.44;5010731;28;20034;-69
2022/08/14 10:30:49;;;;;;;4.75;3.80;;;;;;;36.43;25.75;100920.09;5011191;28;20065;-69
2022/08/14 10:33:30;;;;;;;4.60;3.97;;;;;;;36.44;25.05;100916.13;5010690;28;20042;-69
2022/08/14 10:35:59;;;;;;;6.85;3.63;;;;;;;36.64;25.20;100909.72;5010653;28;20137;-71
2022/08/14 10:38:35;;;;;;;5.07;4.13;;;;;;;36.85;25.16;100906.13;5011288;28;20070;-72
2022/08/14 10:41:15;;;;;;;5.60;4.13;;;;;;;36.79;25.17;100896.53;5010785;28;20434;-72
2022/08/14 10:43:43;;;;;;;6.20;4.05;;;;;;;36.29;25.31;100901.25;5023807;28;20042;-73
2022/08/14 10:46:16;;;;;;;9.20;3.85;;;;;;;36.80;24.62;100892.50;5011479;28;20026;-71
2022/08/14 10:49:01;;;;;;;5.13;3.88;;;;;;;36.58;25.07;100888.13;5011432;28;20038;-75
2022/08/14 10:51:28;;;;;;;6.70;4.00;;;;;;;36.55;25.23;100889.72;5010982;28;20034;-74
2022/08/14 10:53:56;;;;;;;4.57;3.53;;;;;;;36.91;24.39;100885.72;5010979;28;20034;-74
2022/08/14 10:56:32;;;;;;;4.10;3.80;;;;;;;36.91;24.23;100870.94;5012314;28;20500;-72
2022/08/14 10:59:06;;;;;;;4.78;3.92;;;;;;;36.75;23.71;100876.13;5015875;28;20030;-74
2022/08/14 11:01:41;;;;;;;4.57;3.38;;;;;;;37.01;24.00;100882.09;5015839;28;20034;-75
2022/08/14 11:04:19;;;;;;;4.13;3.70;;;;;;;37.31;23.99;100870.44;5016078;28;20030;-73
2022/08/14 11:06:51;;;;;;;11.23;4.45;;;;;;;37.53;23.28;100871.16;5015821;28;20046;-72
2022/08/14 11:09:17;;;;;;;5.13;3.45;;;;;;;37.45;23.67;100873.19;5015467;28;20030;-72
2022/08/14 11:11:42;;;;;;;9.40;4.10;;;;;;;37.41;23.68;100877.22;5015582;28;20157;-74
2022/08/14 11:14:08;;;;;;;7.03;4.00;;;;;;;37.89;23.39;100869.00;5015478;28;20093;-75
2022/08/14 11:16:34;;;;;;;6.18;3.80;;;;;;;37.44;23.63;100868.81;5015290;28;20474;-73
2022/08/14 11:19:02;;;;;;;5.70;3.92;;;;;;;37.90;23.00;100863.00;5015938;28;20084;-74
2022/08/14 11:21:28;;;;;;;4.80;3.83;;;;;;;38.26;22.96;100869.19;5015028;28;20058;-73
2022/08/14 11:23:56;;;;;;;4.97;3.10;;;;;;;38.09;22.80;100858.88;5015467;28;20037;-76
2022/08/14 11:26:24;;;;;;;3.78;3.10;;;;;;;38.35;22.63;100858.31;5015156;28;20057;-74
2022/08/14 11:28:49;;;;;;;5.65;3.80;;;;;;;38.35;22.42;100864.72;5015164;28;20117;-73
2022/08/14 11:31:20;;;;;;;3.72;3.05;;;;;;;38.12;22.27;100870.06;5014871;28;20096;-71
2022/08/14 11:33:56;;;;;;;5.18;3.70;;;;;;;38.74;21.45;100861.63;5015308;28;20046;-73
2022/08/14 11:36:25;;;;;;;5.25;3.33;;;;;;;38.72;21.33;100864.03;5015341;28;20482;-74
2022/08/14 11:38:50;;;;;;;3.72;3.40;;;;;;;38.51;21.37;100848.13;4997373;28;20596;-71